»·PEaware :: N5491J KCNO-KBUR

N5491J :: KCNO-KBUR

FLIGHT INFORMATION

Flight Status: Arrived
Operator: Privately registered:
United States
More flights under this callsign
Pilot: Aero Safety Training (369)
Aircraft: CESSNA 172 SKYHAWK
(C172)
More flights by this aircraft type
Origin: KCNO Chino
United States
Destination: KBUR Bob Hope-Burbank
United States
More flights between these airports :: More routes between these airports
Route: +PDZ V186 VNY
File this flight plan on PilotEdge
Remarks:
Altitude:
(Current/Filed)
6,000ft
Speed:
(Current/Filed)
105kts
Departed: 04-Dec-14 09:40 AM
Arrived: 04-Dec-14 10:46 AM
Distance/Time
Traveled:
38nm/1:06
Distance/Time
To Go:
Arrived

Flight Plot

Page will automatically refresh every two minutes.


Map Options




Map Legend


Flown Route
Filed Route
Departure Airport
Arrival Airport
Navaid (VOR, NDB)
Fix

Horizontal Profiles

Position Reports

Time Latitude Longitude Heading Altitude Ground
Speed
04-Dec-14 09:13 33.978757 -117.637561 182 655ft 0kts
04-Dec-14 09:14 33.978756 -117.637561 182 655ft 0kts
04-Dec-14 09:15 33.978756 -117.637561 182 655ft 0kts
04-Dec-14 09:16 33.978753 -117.637561 182 655ft 0kts
04-Dec-14 09:17 33.978750 -117.637562 182 655ft 0kts
04-Dec-14 09:18 33.978746 -117.637562 182 655ft 0kts
04-Dec-14 09:19 33.978743 -117.637562 182 655ft 0kts
04-Dec-14 09:20 33.978740 -117.637562 182 655ft 0kts
04-Dec-14 09:21 33.978737 -117.637562 182 655ft 0kts
04-Dec-14 09:22 33.978734 -117.637562 182 655ft 0kts
04-Dec-14 09:23 33.978730 -117.637563 182 655ft 0kts
04-Dec-14 09:24 33.978727 -117.637563 182 655ft 0kts
04-Dec-14 09:25 33.978724 -117.637563 182 655ft 0kts
04-Dec-14 09:26 33.978721 -117.637563 182 655ft 0kts
04-Dec-14 09:27 33.978718 -117.637563 182 655ft 0kts
04-Dec-14 09:28 33.978714 -117.637563 182 655ft 0kts
04-Dec-14 09:29 33.978711 -117.637563 181 655ft 0kts
04-Dec-14 09:30 33.978709 -117.637564 181 655ft 0kts
04-Dec-14 09:31 33.978522 -117.636205 89 655ft 5kts
04-Dec-14 09:32 33.977653 -117.635701 222 655ft 0kts
04-Dec-14 09:33 33.976501 -117.631065 177 655ft 0kts
04-Dec-14 09:34 33.976499 -117.631064 177 655ft 0kts
04-Dec-14 09:35 33.976493 -117.631064 176 655ft 0kts
04-Dec-14 09:36 33.976486 -117.631064 176 655ft 0kts
04-Dec-14 09:37 33.975804 -117.636581 269 712ft 63kts
04-Dec-14 09:38 33.977204 -117.661852 273 1549ft 83kts
04-Dec-14 09:39 33.978410 -117.689167 271 2583ft 80kts
04-Dec-14 09:40 33.978887 -117.715417 270 3451ft 78kts
04-Dec-14 09:41 33.979292 -117.741658 270 4198ft 78kts
04-Dec-14 09:42 33.991634 -117.759284 350 4838ft 79kts
04-Dec-14 09:43 34.006712 -117.778129 290 5462ft 92kts
04-Dec-14 09:44 34.014748 -117.807006 287 6017ft 103kts
04-Dec-14 09:45 34.024080 -117.838557 288 5998ft 100kts
04-Dec-14 09:46 34.034007 -117.871265 290 6007ft 107kts
04-Dec-14 09:47 34.044611 -117.905570 290 5996ft 109kts
04-Dec-14 09:48 34.054897 -117.938874 290 5997ft 102kts
04-Dec-14 09:49 34.064729 -117.970751 290 5996ft 100kts
04-Dec-14 09:50 34.074417 -118.002193 290 6004ft 101kts
04-Dec-14 09:51 34.084758 -118.034468 290 6019ft 105kts
04-Dec-14 09:52 34.095888 -118.067451 291 6045ft 108kts
04-Dec-14 09:53 34.104721 -118.102061 285 6064ft 108kts
04-Dec-14 09:54 34.113839 -118.136229 294 6052ft 108kts
04-Dec-14 09:55 34.125608 -118.170042 288 6044ft 112kts
04-Dec-14 09:56 34.136029 -118.206204 291 6023ft 117kts
04-Dec-14 09:57 34.147734 -118.242614 292 6029ft 117kts
04-Dec-14 09:58 34.157792 -118.279694 289 6034ft 117kts
04-Dec-14 09:59 34.169039 -118.317177 292 6018ft 118kts
04-Dec-14 10:00 34.181409 -118.353919 293 6011ft 117kts
04-Dec-14 10:01 34.192754 -118.390666 292 5997ft 118kts
04-Dec-14 10:02 34.203369 -118.427418 294 6024ft 115kts
04-Dec-14 10:03 34.214978 -118.463733 292 6046ft 114kts
04-Dec-14 10:04 34.225651 -118.500017 281 6032ft 115kts
04-Dec-14 10:05 34.222730 -118.538586 270 6015ft 118kts
04-Dec-14 10:06 34.223558 -118.577478 266 6068ft 114kts
04-Dec-14 10:07 34.222144 -118.615402 266 5606ft 115kts
04-Dec-14 10:08 34.219213 -118.655191 226 4708ft 117kts
04-Dec-14 10:09 34.204667 -118.644598 59 3975ft 90kts
04-Dec-14 10:10 34.216333 -118.620733 63 3701ft 80kts
04-Dec-14 10:11 34.223396 -118.592303 90 3778ft 92kts
04-Dec-14 10:12 34.223365 -118.561636 88 3560ft 90kts
04-Dec-14 10:13 34.224076 -118.532595 91 3241ft 82kts
04-Dec-14 10:14 34.223715 -118.504993 86 3263ft 81kts
04-Dec-14 10:15 34.223352 -118.477993 109 3172ft 76kts
04-Dec-14 10:16 34.215343 -118.452918 101 2658ft 82kts
04-Dec-14 10:17 34.210399 -118.425723 101 2027ft 85kts
04-Dec-14 10:18 34.204489 -118.398401 100 1359ft 76kts
04-Dec-14 10:19 34.198803 -118.373337 117 1759ft 76kts
04-Dec-14 10:20 34.183225 -118.383923 290 2765ft 100kts
04-Dec-14 10:21 34.196337 -118.412045 291 3687ft 103kts
04-Dec-14 10:22 34.207300 -118.446160 291 4021ft 111kts
04-Dec-14 10:23 34.219286 -118.480970 293 4065ft 120kts
04-Dec-14 10:24 34.232670 -118.518746 293 4032ft 124kts
04-Dec-14 10:25 34.244910 -118.556264 293 4039ft 119kts
04-Dec-14 10:26 34.256482 -118.593583 293 4016ft 117kts
04-Dec-14 10:27 34.268350 -118.630084 294 4048ft 119kts
04-Dec-14 10:28 34.281330 -118.667614 293 4013ft 123kts
04-Dec-14 10:29 34.293415 -118.704454 268 4083ft 112kts
04-Dec-14 10:30 34.271241 -118.712588 132 4001ft 104kts
04-Dec-14 10:31 34.250500 -118.689330 133 4051ft 101kts
04-Dec-14 10:32 34.230367 -118.665306 130 4036ft 103kts
04-Dec-14 10:33 34.213421 -118.638026 123 4075ft 98kts
04-Dec-14 10:34 34.202216 -118.608664 100 3932ft 96kts
04-Dec-14 10:35 34.200684 -118.577926 91 3381ft 95kts
04-Dec-14 10:36 34.200949 -118.547710 91 3049ft 81kts
04-Dec-14 10:37 34.199678 -118.519274 88 3007ft 81kts
04-Dec-14 10:38 34.199663 -118.494228 98 2925ft 74kts
04-Dec-14 10:39 34.199238 -118.467041 94 2400ft 78kts
04-Dec-14 10:40 34.198676 -118.440493 91 2003ft 76kts
04-Dec-14 10:41 34.198641 -118.413692 88 1559ft 80kts
04-Dec-14 10:42 34.198210 -118.386789 89 1126ft 80kts
04-Dec-14 10:43 34.197854 -118.365198 90 781ft 26kts
04-Dec-14 10:44 34.197113 -118.360300 181 781ft 0kts
04-Dec-14 10:45 34.197112 -118.360300 181 781ft 0kts

Navigation Log

Ident Type
1. KCNO Airport
2. PDZ Navaid
3. TIFNI Fix
4. BAYJY Fix
5. ADAMM Fix
6. PIRRO Fix
7. ITSME Fix
8. ELMOO Fix
9. PURMS Fix
10. DARTS Fix
11. VNY Navaid
12. KBUR Airport